createdAt,value
2022-11-29T00:06:11.972Z,315
2022-11-29T00:26:12.009Z,315
2022-11-29T00:46:11.965Z,317
2022-11-29T01:06:12.125Z,317
2022-11-29T01:26:12.159Z,316
2022-11-29T01:46:12.214Z,313
2022-11-29T02:06:12.186Z,310
2022-11-29T02:26:12.209Z,304
2022-11-29T02:46:12.306Z,299
2022-11-29T03:06:12.316Z,296
2022-11-29T03:26:12.334Z,289
2022-11-29T03:46:12.454Z,294
2022-11-29T04:06:12.405Z,301
2022-11-29T04:26:12.442Z,310
2022-11-29T04:46:12.552Z,314
2022-11-29T05:06:12.511Z,319
2022-11-29T05:26:12.602Z,320
2022-11-29T05:46:12.563Z,323
2022-11-29T06:06:12.589Z,322
2022-11-29T06:26:12.651Z,326
2022-11-29T06:46:12.781Z,326
2022-11-29T07:06:12.690Z,325
2022-11-29T07:26:12.733Z,322
2022-11-29T07:46:12.820Z,320
2022-11-29T08:06:12.799Z,324
2022-11-29T08:26:12.741Z,322
2022-11-29T08:46:18.147Z,317
2022-11-29T09:06:12.995Z,312
2022-11-29T09:26:12.951Z,305
2022-11-29T09:46:12.992Z,300
2022-11-29T10:26:13.071Z,290
2022-11-29T10:46:13.145Z,291
2022-11-29T11:06:13.157Z,298
2022-11-29T11:26:13.171Z,303
2022-11-29T11:46:17.791Z,309
2022-11-29T12:06:13.239Z,311
2022-11-29T12:26:16.229Z,312
2022-11-29T12:46:13.375Z,312
2022-11-29T13:06:13.308Z,312
2022-11-29T13:26:13.350Z,312
2022-11-29T13:46:13.496Z,312
2022-11-29T14:06:13.419Z,310
2022-11-29T14:26:13.343Z,307
2022-11-29T15:06:13.526Z,303
2022-11-29T15:26:13.579Z,303
2022-11-29T15:46:13.632Z,300
2022-11-29T16:06:13.634Z,297
2022-11-29T16:26:13.670Z,292
2022-11-29T16:46:13.747Z,287
2022-11-29T17:06:13.746Z,282
2022-11-29T17:26:13.773Z,280
2022-11-29T17:46:13.819Z,278
2022-11-29T18:06:13.834Z,280
2022-11-29T18:26:13.898Z,288
2022-11-29T18:46:14.008Z,296
2022-11-29T19:06:13.831Z,303
2022-11-29T19:26:13.995Z,307
2022-11-29T19:46:14.074Z,305
2022-11-29T20:06:14.079Z,307
2022-11-29T20:26:14.097Z,309
2022-11-29T20:46:14.215Z,308
2022-11-29T21:06:14.159Z,309
2022-11-29T21:26:14.197Z,307
2022-11-29T21:46:14.296Z,307
2022-11-29T22:06:14.284Z,306
2022-11-29T22:26:14.298Z,306
2022-11-29T22:46:14.412Z,303
2022-11-29T23:06:14.398Z,298
2022-11-29T23:26:14.412Z,292
2022-11-29T23:46:14.498Z,289
